Valparaiso, Nebraska
Current Conditions -  °F | °C
As of 6:15 PM on Friday 28 Nov 2014 (Local Time) from KAHQ Reporting Station
Clear Clear  
Wind Chill: 36°   Ceiling: Unl
Heat Index: 40°   Visibility: 10mi
Dew Point: 28°   Wind: 7mph
Humidity: 62%   Direction: 150°SSE
Pressure: 29.65"   Gusts: NA
Location:  41.08°N, 96.83°W
Report Text: KAHQ 290015Z AUTO 15006KT 10SM CLR 05/M02 A2965 RMK AO2 T00471020
Loading
Personal Weather Stations






























Interactive Weather Map New forecast layout! Learn more

10-Day Weather Forecast

Advertisements
Track Severe Weather on mobile